Time;durP1;ratioP1;P1;durP2;ratioP2;P2;SDS_P1;SDS_P2;PMS_P1;PMS_P2;Temp;Humidity;BMP_temperature;BMP_pressure;BME280_temperature;BME280_humidity;BME280_pressure;Samples;Min_cycle;Max_cycle;Signal;HPM_P1;HPM_P2
2021/05/30 00:01:30;;;;;;;1.10;1.00;;;14.40;99.90;;;;;;5006672;28;20679;-73
2021/05/30 00:03:57;;;;;;;1.10;1.00;;;14.30;99.90;;;;;;5004364;28;20192;-76
2021/05/30 00:06:23;;;;;;;0.95;0.90;;;14.30;99.90;;;;;;5006956;28;20215;-74
2021/05/30 00:08:54;;;;;;;1.10;1.10;;;14.20;99.90;;;;;;5003533;28;20204;-75
2021/05/30 00:11:20;;;;;;;1.20;1.20;;;14.10;99.90;;;;;;5004603;28;20889;-74
2021/05/30 00:13:47;;;;;;;1.20;1.20;;;14.00;99.90;;;;;;5004405;28;20201;-74
2021/05/30 00:16:13;;;;;;;1.20;1.20;;;14.00;99.90;;;;;;5003245;28;20227;-73
2021/05/30 00:18:40;;;;;;;1.10;1.10;;;13.90;99.90;;;;;;5003423;28;20227;-74
2021/05/30 00:21:07;;;;;;;0.90;0.90;;;14.00;99.90;;;;;;5003239;28;20216;-74
2021/05/30 00:23:34;;;;;;;1.70;1.10;;;14.00;99.90;;;;;;5004545;28;20224;-75
2021/05/30 00:26:01;;;;;;;1.00;1.00;;;13.90;99.90;;;;;;5005281;28;20239;-74
2021/05/30 00:28:28;;;;;;;1.00;1.00;;;13.90;99.90;;;;;;5005240;28;20231;-74
2021/05/30 00:30:55;;;;;;;1.20;1.20;;;13.90;99.90;;;;;;5007428;28;20232;-73
2021/05/30 00:33:21;;;;;;;0.90;0.90;;;13.90;99.90;;;;;;5005549;28;20213;-74
2021/05/30 00:35:48;;;;;;;1.08;1.08;;;13.90;99.90;;;;;;4993139;28;20666;-74
2021/05/30 00:38:14;;;;;;;1.13;1.13;;;13.80;99.90;;;;;;4983763;28;21974;-74
2021/05/30 00:40:41;;;;;;;1.20;1.20;;;13.80;99.90;;;;;;4985248;28;20221;-75
2021/05/30 00:43:09;;;;;;;1.20;1.10;;;13.80;99.90;;;;;;4981194;28;20212;-74
2021/05/30 00:45:36;;;;;;;1.15;1.10;;;13.80;99.90;;;;;;4995832;28;20258;-73
2021/05/30 00:48:02;;;;;;;1.40;1.30;;;13.80;99.90;;;;;;5003626;28;20196;-74
2021/05/30 00:50:29;;;;;;;1.20;1.10;;;13.80;99.90;;;;;;5002812;28;20216;-73
2021/05/30 00:52:56;;;;;;;1.10;1.10;;;13.70;99.90;;;;;;5007364;28;20570;-74
2021/05/30 00:55:24;;;;;;;1.20;1.20;;;13.70;99.90;;;;;;5001730;28;20225;-73
2021/05/30 00:57:51;;;;;;;0.95;0.95;;;13.70;99.90;;;;;;5002032;28;20220;-74
2021/05/30 01:00:19;;;;;;;1.20;1.20;;;13.70;99.90;;;;;;5007507;28;20220;-74
2021/05/30 01:02:46;;;;;;;1.02;1.00;;;13.70;99.90;;;;;;5007241;28;20201;-75
2021/05/30 01:05:12;;;;;;;1.02;1.02;;;13.70;99.90;;;;;;5002720;28;20695;-74
2021/05/30 01:07:42;;;;;;;1.25;1.15;;;13.60;99.90;;;;;;5008196;28;20196;-74
2021/05/30 01:10:20;;;;;;;1.27;1.20;;;13.60;99.90;;;;;;5008230;28;20710;-74
2021/05/30 01:12:48;;;;;;;1.25;1.20;;;13.60;99.90;;;;;;5009177;28;20662;-75
2021/05/30 01:15:15;;;;;;;1.33;1.20;;;13.50;99.90;;;;;;5008468;28;20216;-74
2021/05/30 01:17:43;;;;;;;0.90;0.90;;;13.50;99.90;;;;;;5006040;28;20203;-78
2021/05/30 01:20:14;;;;;;;1.00;1.00;;;13.50;99.90;;;;;;5010778;28;20220;-73
2021/05/30 01:22:42;;;;;;;1.15;1.15;;;13.50;99.90;;;;;;5007686;28;21557;-76
2021/05/30 01:25:10;;;;;;;1.70;1.60;;;13.50;99.90;;;;;;5005481;28;20750;-74
2021/05/30 01:27:37;;;;;;;1.25;1.20;;;13.50;99.90;;;;;;5007926;28;21787;-74
2021/05/30 01:30:06;;;;;;;1.30;1.20;;;13.50;99.90;;;;;;5002754;28;20251;-74
2021/05/30 01:32:32;;;;;;;1.00;1.00;;;13.40;99.90;;;;;;5005296;28;20201;-75
2021/05/30 01:34:59;;;;;;;1.17;1.17;;;13.40;99.90;;;;;;5005080;28;20595;-75
2021/05/30 01:37:26;;;;;;;1.73;1.42;;;13.30;99.90;;;;;;5004035;28;20577;-74
2021/05/30 01:39:52;;;;;;;1.02;1.02;;;13.30;99.90;;;;;;5002870;28;20232;-74
2021/05/30 01:42:20;;;;;;;1.27;1.27;;;13.30;99.90;;;;;;5003394;28;20627;-75
2021/05/30 01:44:47;;;;;;;1.85;1.38;;;13.20;99.90;;;;;;5002856;28;20220;-74
2021/05/30 01:47:13;;;;;;;1.85;1.48;;;13.20;99.90;;;;;;5007223;28;20197;-75
2021/05/30 01:49:40;;;;;;;1.00;1.00;;;13.20;99.90;;;;;;5009226;28;20220;-75
2021/05/30 01:52:08;;;;;;;1.00;1.00;;;13.10;99.90;;;;;;5006961;28;20224;-74
2021/05/30 01:54:36;;;;;;;1.02;1.02;;;13.10;99.90;;;;;;5011469;28;20649;-75
2021/05/30 01:57:08;;;;;;;1.30;1.23;;;13.10;99.90;;;;;;5010621;28;20208;-75
2021/05/30 01:59:37;;;;;;;0.90;0.90;;;13.00;99.90;;;;;;5005496;28;20231;-75
2021/05/30 02:02:05;;;;;;;1.65;1.00;;;13.00;99.90;;;;;;5000503;28;20300;-76
2021/05/30 02:04:32;;;;;;;1.00;1.00;;;13.00;99.90;;;;;;5005127;28;20648;-75
2021/05/30 02:07:00;;;;;;;1.10;1.10;;;12.90;99.90;;;;;;5007780;28;20196;-74
2021/05/30 02:09:27;;;;;;;0.90;0.90;;;12.90;99.90;;;;;;5007200;28;20192;-75
2021/05/30 02:11:53;;;;;;;1.40;1.30;;;12.90;99.90;;;;;;5002768;28;20278;-73
2021/05/30 02:14:20;;;;;;;1.20;1.10;;;12.90;99.90;;;;;;5008574;28;20204;-73
2021/05/30 02:16:48;;;;;;;1.50;1.40;;;12.80;99.90;;;;;;5007401;28;20196;-73
2021/05/30 02:19:15;;;;;;;0.95;0.95;;;12.80;99.90;;;;;;5005971;28;20715;-74
2021/05/30 02:21:43;;;;;;;1.13;1.10;;;12.70;99.90;;;;;;5007209;28;20601;-73
2021/05/30 02:24:11;;;;;;;1.25;1.25;;;12.70;99.90;;;;;;5001102;28;20656;-76
2021/05/30 02:26:38;;;;;;;1.10;1.05;;;12.70;99.90;;;;;;5006748;28;20223;-74
2021/05/30 02:29:05;;;;;;;1.02;1.02;;;12.70;99.90;;;;;;5007485;28;20251;-76
2021/05/30 02:31:32;;;;;;;1.17;1.17;;;12.70;99.90;;;;;;5007290;28;20224;-76
2021/05/30 02:34:00;;;;;;;1.02;1.00;;;12.60;99.90;;;;;;5008996;28;20200;-73
2021/05/30 02:36:28;;;;;;;1.45;1.35;;;12.60;99.90;;;;;;5006271;28;20216;-76
2021/05/30 02:38:55;;;;;;;1.30;1.30;;;12.50;99.90;;;;;;5004239;28;20221;-76
2021/05/30 02:41:23;;;;;;;1.10;1.10;;;12.50;99.90;;;;;;5002543;28;20224;-74
2021/05/30 02:43:50;;;;;;;1.05;1.05;;;12.50;99.90;;;;;;5003930;28;20200;-74
2021/05/30 02:46:17;;;;;;;1.33;1.30;;;12.50;99.90;;;;;;5003970;28;20216;-74
2021/05/30 02:48:43;;;;;;;0.90;0.90;;;12.50;99.90;;;;;;5007930;28;20266;-74
2021/05/30 02:51:11;;;;;;;1.30;1.30;;;12.50;99.90;;;;;;5002053;28;20228;-74
2021/05/30 02:53:37;;;;;;;1.20;1.20;;;12.50;99.90;;;;;;5007812;28;20200;-74
2021/05/30 02:56:04;;;;;;;1.05;1.05;;;12.50;99.90;;;;;;4999661;28;20238;-74
2021/05/30 02:58:31;;;;;;;1.60;1.50;;;12.40;99.90;;;;;;5007636;28;20274;-74
2021/05/30 03:00:58;;;;;;;1.15;1.15;;;12.40;99.90;;;;;;5004369;28;20234;-74
2021/05/30 03:03:25;;;;;;;1.40;1.30;;;12.30;99.90;;;;;;5005362;28;20659;-76
2021/05/30 03:05:51;;;;;;;1.10;1.00;;;12.30;99.90;;;;;;5007699;28;20286;-74
2021/05/30 03:08:19;;;;;;;1.30;1.20;;;12.20;99.90;;;;;;5007917;28;20200;-76
2021/05/30 03:10:45;;;;;;;1.15;1.15;;;12.20;99.90;;;;;;5000617;28;20226;-73
2021/05/30 03:13:12;;;;;;;1.33;1.23;;;12.20;99.90;;;;;;5003234;28;20200;-76
2021/05/30 03:15:39;;;;;;;1.40;1.30;;;12.10;99.90;;;;;;5008535;28;20275;-74
2021/05/30 03:18:06;;;;;;;1.20;1.20;;;12.10;99.90;;;;;;5008751;28;20204;-75
2021/05/30 03:20:33;;;;;;;1.10;1.10;;;12.10;99.90;;;;;;5008306;28;20220;-76
2021/05/30 03:22:59;;;;;;;1.10;1.10;;;12.10;99.90;;;;;;5006536;28;20201;-74
2021/05/30 03:25:27;;;;;;;1.20;1.20;;;12.00;99.90;;;;;;5006586;28;20216;-74
2021/05/30 03:27:54;;;;;;;1.17;1.17;;;11.90;99.90;;;;;;5008680;28;20207;-74
2021/05/30 03:30:20;;;;;;;15.50;1.20;;;11.90;99.90;;;;;;5004827;28;20219;-76
2021/05/30 03:32:47;;;;;;;1.23;1.15;;;11.90;99.90;;;;;;5007598;28;20215;-75
2021/05/30 03:35:13;;;;;;;2.00;1.40;;;12.00;99.90;;;;;;5002429;28;20227;-74
2021/05/30 03:37:40;;;;;;;1.65;1.17;;;12.00;99.90;;;;;;5009118;28;20215;-75
2021/05/30 03:40:16;;;;;;;1.45;1.35;;;12.00;99.90;;;;;;5009091;28;20592;-76
2021/05/30 03:42:48;;;;;;;1.10;1.10;;;11.90;99.90;;;;;;5003101;28;20246;-76
2021/05/30 03:45:16;;;;;;;1.23;1.13;;;11.90;99.90;;;;;;5009497;28;20753;-75
2021/05/30 03:47:42;;;;;;;1.17;1.08;;;11.90;99.90;;;;;;5009967;28;20196;-74
2021/05/30 03:50:10;;;;;;;1.55;1.45;;;11.90;99.90;;;;;;5006807;28;20705;-73
2021/05/30 03:52:37;;;;;;;1.20;1.20;;;11.90;99.90;;;;;;5007906;28;20232;-75
2021/05/30 03:55:05;;;;;;;1.30;1.20;;;11.90;99.90;;;;;;5003558;28;20231;-75
2021/05/30 03:57:32;;;;;;;1.27;1.27;;;11.80;99.90;;;;;;5007600;28;20189;-75
2021/05/30 03:59:59;;;;;;;1.40;1.30;;;11.80;99.90;;;;;;5006937;28;20228;-74
2021/05/30 04:02:26;;;;;;;1.30;1.30;;;11.80;99.90;;;;;;5008799;28;20216;-74
2021/05/30 04:04:53;;;;;;;1.30;1.30;;;11.80;99.90;;;;;;5004703;28;20226;-76
2021/05/30 04:07:19;;;;;;;1.20;1.20;;;11.80;99.90;;;;;;5007908;28;20200;-77
2021/05/30 04:09:46;;;;;;;1.40;1.30;;;11.90;99.90;;;;;;5002536;28;20606;-73
2021/05/30 04:12:12;;;;;;;1.60;1.50;;;12.00;99.90;;;;;;5004930;28;20706;-73
2021/05/30 04:14:39;;;;;;;1.40;1.40;;;12.10;99.90;;;;;;5005322;28;20200;-76
2021/05/30 04:17:07;;;;;;;1.60;1.50;;;12.20;99.90;;;;;;5003079;28;20197;-74
2021/05/30 04:19:33;;;;;;;1.27;1.27;;;12.30;99.90;;;;;;5007917;28;20220;-73
2021/05/30 04:22:00;;;;;;;1.70;1.60;;;12.40;99.90;;;;;;4988844;28;20229;-74
2021/05/30 04:24:27;;;;;;;1.90;1.80;;;12.40;99.90;;;;;;4981529;28;20678;-74
2021/05/30 04:26:54;;;;;;;1.20;1.10;;;12.50;99.90;;;;;;4990470;28;20792;-74
2021/05/30 04:29:20;;;;;;;1.23;1.20;;;12.60;99.90;;;;;;4990835;28;20200;-76
2021/05/30 04:31:47;;;;;;;1.60;1.50;;;12.70;99.90;;;;;;5004121;28;20224;-75
2021/05/30 04:34:14;;;;;;;1.23;1.13;;;12.80;99.90;;;;;;5009224;28;20537;-75
2021/05/30 04:36:41;;;;;;;1.30;1.30;;;12.80;99.90;;;;;;5005671;28;20227;-75
2021/05/30 04:39:07;;;;;;;1.42;1.42;;;12.90;99.90;;;;;;5002058;28;20248;-74
2021/05/30 04:41:34;;;;;;;1.10;1.10;;;12.90;99.90;;;;;;5005588;28;20231;-74
2021/05/30 04:44:00;;;;;;;1.40;1.35;;;13.00;99.90;;;;;;5008375;28;20200;-73
2021/05/30 04:46:27;;;;;;;1.10;1.10;;;13.10;99.90;;;;;;5009724;28;20216;-74
2021/05/30 04:48:54;;;;;;;1.33;1.33;;;13.10;99.90;;;;;;5004711;28;20198;-77
2021/05/30 04:51:21;;;;;;;1.70;1.50;;;13.20;99.90;;;;;;5012535;28;21212;-74
2021/05/30 04:53:48;;;;;;;1.60;1.50;;;13.40;99.90;;;;;;5003871;28;20639;-77
2021/05/30 04:56:18;;;;;;;1.50;1.40;;;13.50;99.90;;;;;;5009913;28;20220;-74
2021/05/30 04:58:44;;;;;;;1.88;1.77;;;13.60;99.90;;;;;;5007991;28;20224;-74
2021/05/30 05:01:11;;;;;;;1.30;1.30;;;13.70;99.90;;;;;;5010099;28;20239;-74
2021/05/30 05:03:38;;;;;;;1.60;1.50;;;13.90;99.90;;;;;;5008771;28;20608;-75
2021/05/30 05:06:05;;;;;;;1.15;1.15;;;14.00;99.90;;;;;;5005636;28;20224;-74
2021/05/30 05:08:33;;;;;;;1.45;1.35;;;14.00;99.90;;;;;;5007458;28;20628;-75
2021/05/30 05:11:00;;;;;;;1.52;1.42;;;14.10;99.90;;;;;;5004468;28;20220;-74
2021/05/30 05:13:27;;;;;;;1.80;1.70;;;14.10;99.90;;;;;;5006412;28;20712;-75
2021/05/30 05:15:54;;;;;;;1.20;1.20;;;14.20;99.90;;;;;;5008894;28;20252;-76
2021/05/30 05:18:23;;;;;;;1.45;1.27;;;14.20;99.90;;;;;;5010933;28;20207;-74
2021/05/30 05:20:50;;;;;;;1.67;1.58;;;14.30;99.90;;;;;;5003301;28;20223;-76
2021/05/30 05:23:19;;;;;;;2.10;1.90;;;14.20;99.90;;;;;;5001877;28;20559;-74
2021/05/30 05:25:49;;;;;;;1.75;1.65;;;14.10;99.90;;;;;;5004281;28;20224;-74
2021/05/30 05:28:15;;;;;;;1.70;1.60;;;14.10;99.90;;;;;;5008058;28;20679;-75
2021/05/30 05:30:42;;;;;;;1.83;1.73;;;14.10;99.90;;;;;;5004313;28;20256;-75
2021/05/30 05:33:09;;;;;;;1.63;1.52;;;14.20;99.90;;;;;;5004353;28;20196;-74
2021/05/30 05:35:35;;;;;;;1.48;1.38;;;14.40;99.90;;;;;;5004677;28;20765;-74
2021/05/30 05:38:03;;;;;;;1.40;1.40;;;14.50;99.90;;;;;;5004345;28;20219;-76
2021/05/30 05:40:30;;;;;;;1.88;1.77;;;14.70;99.90;;;;;;5009808;28;20231;-74
2021/05/30 05:42:58;;;;;;;1.60;1.50;;;14.70;99.90;;;;;;5006413;28;20200;-74
2021/05/30 05:45:25;;;;;;;1.73;1.63;;;14.70;99.90;;;;;;5005418;28;21081;-75
2021/05/30 05:47:52;;;;;;;1.92;1.83;;;14.70;99.90;;;;;;5010723;28;20219;-75
2021/05/30 05:53:01;;;;;;;1.92;1.83;;;15.00;99.90;;;;;;5010099;28;20287;-85
2021/05/30 05:55:28;;;;;;;4.22;2.25;;;15.00;99.90;;;;;;5008918;28;20228;-84
2021/05/30 05:57:54;;;;;;;1.70;1.60;;;15.10;99.90;;;;;;5010812;28;20262;-84
2021/05/30 06:00:24;;;;;;;1.65;1.48;;;15.10;99.90;;;;;;5010954;28;20232;-87
2021/05/30 06:02:51;;;;;;;1.73;1.63;;;15.20;99.90;;;;;;5011517;28;21581;-85
2021/05/30 06:05:19;;;;;;;2.30;1.33;;;15.10;99.90;;;;;;5002823;28;20204;-87
2021/05/30 06:07:46;;;;;;;1.88;1.70;;;15.10;99.90;;;;;;4988051;28;20648;-83
2021/05/30 06:10:14;;;;;;;1.85;1.42;;;15.10;99.90;;;;;;4993805;28;20193;-85
2021/05/30 06:12:41;;;;;;;1.60;1.50;;;15.10;99.90;;;;;;5006405;28;20199;-89
2021/05/30 06:15:09;;;;;;;1.70;1.60;;;15.20;99.90;;;;;;5004498;28;20197;-87
2021/05/30 06:17:37;;;;;;;2.95;1.75;;;15.30;99.90;;;;;;5009901;28;20200;-86
2021/05/30 06:20:05;;;;;;;1.70;1.60;;;15.40;99.90;;;;;;5010260;28;20305;-88
2021/05/30 06:22:32;;;;;;;2.90;1.83;;;15.50;99.90;;;;;;5007273;28;20248;-89
2021/05/30 06:24:59;;;;;;;2.17;1.98;;;15.60;99.90;;;;;;5008047;28;20208;-88
2021/05/30 06:27:25;;;;;;;2.17;1.98;;;15.70;99.90;;;;;;5006989;28;20212;-87
2021/05/30 06:29:52;;;;;;;1.88;1.75;;;15.60;99.90;;;;;;5004558;28;20253;-91
2021/05/30 06:32:18;;;;;;;2.22;2.03;;;15.50;99.90;;;;;;5007812;28;20224;-88
2021/05/30 06:34:46;;;;;;;1.67;1.58;;;15.50;99.90;;;;;;5007157;28;20193;-88
2021/05/30 06:37:13;;;;;;;1.80;1.70;;;15.60;99.90;;;;;;5010615;28;20266;-90
2021/05/30 06:39:39;;;;;;;1.80;1.70;;;15.70;99.90;;;;;;5009228;28;20252;-90
2021/05/30 06:42:07;;;;;;;1.50;1.40;;;15.80;99.90;;;;;;5007102;28;20220;-90
2021/05/30 06:44:33;;;;;;;1.52;1.42;;;16.00;99.90;;;;;;5009507;28;20228;-89
2021/05/30 06:47:00;;;;;;;1.60;1.50;;;16.20;99.90;;;;;;5004048;28;20262;-89
2021/05/30 06:49:26;;;;;;;1.70;1.60;;;16.30;99.90;;;;;;5006135;28;20643;-90
2021/05/30 06:51:54;;;;;;;1.50;1.40;;;16.50;99.90;;;;;;5007562;28;20219;-91
2021/05/30 06:54:21;;;;;;;2.28;1.55;;;16.60;99.90;;;;;;5006966;28;20211;-91
2021/05/30 06:56:47;;;;;;;1.73;1.60;;;16.60;99.90;;;;;;5005425;28;20223;-90
2021/05/30 06:59:14;;;;;;;2.63;1.42;;;16.70;99.90;;;;;;5005458;28;20232;-86
2021/05/30 07:01:40;;;;;;;3.17;1.85;;;16.80;99.90;;;;;;4999741;28;20646;-86
2021/05/30 07:04:07;;;;;;;2.25;1.63;;;17.00;99.90;;;;;;5005284;28;20698;-86
2021/05/30 07:06:34;;;;;;;1.45;1.35;;;17.20;99.90;;;;;;5004679;28;20220;-83
2021/05/30 07:09:04;;;;;;;1.42;1.33;;;17.40;99.90;;;;;;5004827;28;20204;-81
2021/05/30 07:11:30;;;;;;;2.53;1.50;;;17.50;99.90;;;;;;5004959;28;20216;-82
2021/05/30 07:13:57;;;;;;;1.50;1.40;;;17.40;99.90;;;;;;5004617;28;20208;-80
2021/05/30 07:16:24;;;;;;;1.55;1.45;;;17.50;99.90;;;;;;5001082;28;20220;-82
2021/05/30 07:18:51;;;;;;;1.67;1.58;;;17.70;99.90;;;;;;4999991;28;20251;-79
2021/05/30 07:21:17;;;;;;;1.40;1.30;;;17.80;99.90;;;;;;4998281;28;20338;-82
2021/05/30 07:23:44;;;;;;;2.17;1.83;;;17.90;99.90;;;;;;4999921;28;20208;-80
2021/05/30 07:26:11;;;;;;;1.50;1.40;;;18.00;99.90;;;;;;5002721;28;20216;-81
2021/05/30 07:28:39;;;;;;;1.58;1.48;;;18.00;99.90;;;;;;4998385;28;20680;-79
2021/05/30 07:31:05;;;;;;;1.50;1.40;;;18.10;99.90;;;;;;4994763;28;20232;-81
2021/05/30 07:33:32;;;;;;;1.50;1.40;;;18.20;99.90;;;;;;5002929;28;20204;-79
2021/05/30 07:35:58;;;;;;;1.67;1.55;;;18.10;99.90;;;;;;5004877;28;20224;-79
2021/05/30 07:38:25;;;;;;;1.10;1.10;;;18.20;99.90;;;;;;5005550;28;20223;-85
2021/05/30 07:40:52;;;;;;;1.60;1.50;;;18.30;99.90;;;;;;5010058;28;20227;-86
2021/05/30 07:43:20;;;;;;;1.20;1.20;;;18.50;99.90;;;;;;5012110;28;20209;-81
2021/05/30 07:45:46;;;;;;;1.48;1.38;;;18.90;99.90;;;;;;5000296;28;20270;-79
2021/05/30 07:48:13;;;;;;;1.65;1.55;;;19.10;99.90;;;;;;5006538;28;20193;-79
2021/05/30 07:50:40;;;;;;;3.25;1.40;;;19.20;99.90;;;;;;5003378;28;20193;-81
2021/05/30 07:53:06;;;;;;;1.60;1.30;;;19.20;99.90;;;;;;5004946;28;20203;-80
2021/05/30 07:55:33;;;;;;;1.90;1.50;;;19.10;99.90;;;;;;5006334;28;20721;-81
2021/05/30 07:58:00;;;;;;;1.98;1.55;;;19.10;99.90;;;;;;5007941;28;20224;-82
2021/05/30 08:00:27;;;;;;;1.33;1.20;;;19.10;99.90;;;;;;5001922;28;20224;-79
2021/05/30 08:02:54;;;;;;;1.40;1.25;;;19.30;99.90;;;;;;5025276;28;20207;-85
2021/05/30 08:05:21;;;;;;;1.48;1.38;;;19.40;99.90;;;;;;5019390;28;20291;-80
2021/05/30 08:07:49;;;;;;;1.58;1.30;;;19.50;99.90;;;;;;5005304;28;20334;-79
2021/05/30 08:10:17;;;;;;;1.30;1.20;;;19.60;99.90;;;;;;5003252;28;20188;-79
2021/05/30 08:12:44;;;;;;;1.17;1.10;;;19.80;99.90;;;;;;5002185;28;20219;-79
2021/05/30 08:15:12;;;;;;;1.30;1.20;;;19.80;99.90;;;;;;5005090;28;20204;-79
2021/05/30 08:17:40;;;;;;;1.48;1.38;;;19.80;99.90;;;;;;5009023;28;20223;-80
2021/05/30 08:20:10;;;;;;;1.15;1.15;;;20.00;99.90;;;;;;5027247;28;20199;-81
2021/05/30 08:22:37;;;;;;;1.63;1.52;;;20.10;99.90;;;;;;5026983;23;20585;-74
2021/05/30 08:25:05;;;;;;;0.90;0.90;;;20.20;99.90;;;;;;5018467;28;20274;-74
2021/05/30 08:27:31;;;;;;;1.63;1.17;;;20.30;99.90;;;;;;5018565;28;20215;-75
2021/05/30 08:29:58;;;;;;;1.52;1.20;;;20.50;99.90;;;;;;5015302;28;20199;-74
2021/05/30 08:32:25;;;;;;;1.30;1.20;;;20.70;99.90;;;;;;5019386;28;20288;-74
2021/05/30 08:34:52;;;;;;;1.05;1.05;;;20.70;99.90;;;;;;5015559;28;20191;-74
2021/05/30 08:37:19;;;;;;;1.13;1.13;;;20.80;99.90;;;;;;5019106;28;20706;-74
2021/05/30 08:39:46;;;;;;;1.80;1.23;;;20.60;99.90;;;;;;5010319;28;20212;-74
2021/05/30 08:42:12;;;;;;;1.00;1.00;;;20.80;99.90;;;;;;5022045;28;20592;-75
2021/05/30 08:44:39;;;;;;;1.40;1.30;;;20.80;99.90;;;;;;5017057;28;20197;-74
2021/05/30 08:47:06;;;;;;;1.02;1.00;;;20.90;99.90;;;;;;5017655;28;20636;-74
2021/05/30 08:49:33;;;;;;;1.02;1.00;;;20.80;99.90;;;;;;5016061;28;20188;-74
2021/05/30 08:52:00;;;;;;;2.83;1.08;;;20.90;99.90;;;;;;5016801;28;20654;-74
2021/05/30 08:54:31;;;;;;;1.00;1.00;;;21.20;99.90;;;;;;5013559;28;20258;-74
2021/05/30 08:56:58;;;;;;;0.90;0.90;;;21.00;99.90;;;;;;5013268;28;20247;-74
2021/05/30 08:59:29;;;;;;;1.23;1.13;;;21.00;99.90;;;;;;5018409;28;20227;-74
2021/05/30 09:01:57;;;;;;;0.98;0.98;;;20.90;99.90;;;;;;5012745;28;20231;-74
2021/05/30 09:04:31;;;;;;;0.80;0.80;;;21.00;99.90;;;;;;5022698;28;20210;-74
2021/05/30 09:06:58;;;;;;;1.10;1.10;;;21.00;99.90;;;;;;5017190;28;20637;-73
2021/05/30 09:09:35;;;;;;;1.38;0.95;;;20.90;99.90;;;;;;5019354;28;20196;-74
2021/05/30 09:12:01;;;;;;;1.33;1.10;;;21.00;99.90;;;;;;5035892;28;20236;-74
2021/05/30 09:14:30;;;;;;;1.00;0.90;;;21.00;99.90;;;;;;5030764;28;20334;-74
2021/05/30 09:16:59;;;;;;;1.40;1.30;;;21.10;99.90;;;;;;5017734;28;20212;-74
2021/05/30 09:19:42;;;;;;;1.13;1.00;;;21.20;99.90;;;;;;5011944;28;20216;-74
2021/05/30 09:22:23;;;;;;;1.35;1.00;;;21.30;99.90;;;;;;5013392;28;20248;-74
2021/05/30 09:25:19;;;;;;;1.67;0.90;;;21.50;99.90;;;;;;5015516;28;20200;-74
2021/05/30 09:27:48;;;;;;;1.00;0.90;;;21.70;99.90;;;;;;4989001;28;20290;-74
2021/05/30 09:30:21;;;;;;;0.93;0.93;;;21.70;99.90;;;;;;5018472;28;20204;-74
2021/05/30 09:32:55;;;;;;;0.80;0.80;;;21.80;99.90;;;;;;5016065;28;20243;-74
2021/05/30 09:35:22;;;;;;;1.15;1.13;;;21.90;99.90;;;;;;5018979;28;20199;-75
2021/05/30 09:38:00;;;;;;;0.95;0.90;;;21.80;99.90;;;;;;5015442;28;20714;-75
2021/05/30 09:40:38;;;;;;;0.73;0.73;;;22.10;99.20;;;;;;5015439;28;20449;-74
2021/05/30 09:43:08;;;;;;;0.80;0.80;;;22.50;99.90;;;;;;5009925;28;20235;-74
2021/05/30 09:45:35;;;;;;;0.80;0.80;;;22.50;97.40;;;;;;5016929;28;20233;-75
2021/05/30 09:48:02;;;;;;;0.68;0.68;;;22.50;97.30;;;;;;5014887;28;20219;-74
2021/05/30 09:50:33;;;;;;;0.73;0.73;;;22.50;98.20;;;;;;5020332;28;20582;-75
2021/05/30 09:53:01;;;;;;;1.08;1.00;;;22.60;96.50;;;;;;5013904;28;20227;-75
2021/05/30 09:55:31;;;;;;;0.93;0.70;;;22.50;96.70;;;;;;5019044;28;20250;-74
2021/05/30 09:58:13;;;;;;;0.70;0.70;;;22.60;96.10;;;;;;5018659;28;20281;-75
2021/05/30 10:00:40;;;;;;;0.85;0.80;;;22.80;95.70;;;;;;5013019;28;20613;-75
2021/05/30 10:03:07;;;;;;;0.95;0.93;;;22.90;96.90;;;;;;5020619;28;20713;-75
2021/05/30 10:05:34;;;;;;;0.70;0.70;;;22.90;94.50;;;;;;5021602;28;20203;-75
2021/05/30 10:08:01;;;;;;;0.70;0.70;;;23.00;95.20;;;;;;5027046;28;20211;-76
2021/05/30 10:10:28;;;;;;;0.88;0.88;;;23.10;95.00;;;;;;5023969;28;20188;-75
2021/05/30 10:12:55;;;;;;;0.95;0.95;;;23.20;93.40;;;;;;5016467;28;20238;-75
2021/05/30 10:15:23;;;;;;;1.60;0.75;;;23.00;93.10;;;;;;5015893;28;20195;-75
2021/05/30 10:17:53;;;;;;;0.60;0.60;;;23.10;93.70;;;;;;5021973;28;20215;-75
2021/05/30 10:20:24;;;;;;;0.75;0.75;;;23.20;93.70;;;;;;5015235;28;20474;-74
2021/05/30 10:22:57;;;;;;;0.85;0.85;;;23.30;94.90;;;;;;5018776;28;20228;-74
2021/05/30 10:25:29;;;;;;;0.73;0.73;;;23.20;92.20;;;;;;5010969;28;20661;-75
2021/05/30 10:28:15;;;;;;;1.40;1.02;;;23.10;91.70;;;;;;5012063;28;20216;-75
2021/05/30 10:30:45;;;;;;;0.77;0.77;;;23.20;92.00;;;;;;5011496;28;20193;-75
2021/05/30 10:33:14;;;;;;;0.65;0.65;;;23.30;92.70;;;;;;5014417;28;20225;-75
2021/05/30 10:35:43;;;;;;;1.38;0.85;;;23.80;93.50;;;;;;5012275;28;20327;-75
2021/05/30 10:38:12;;;;;;;0.60;0.60;;;24.20;93.30;;;;;;5014860;28;20724;-75
2021/05/30 10:40:41;;;;;;;0.60;0.60;;;24.00;93.20;;;;;;5029060;28;20247;-76
2021/05/30 10:43:19;;;;;;;0.80;0.80;;;23.90;91.50;;;;;;5023299;28;20213;-75
2021/05/30 10:46:05;;;;;;;0.60;0.60;;;23.80;91.30;;;;;;5016645;28;20200;-75
2021/05/30 10:48:33;;;;;;;0.70;0.70;;;23.90;88.60;;;;;;5014726;28;20211;-75
2021/05/30 10:51:08;;;;;;;0.70;0.70;;;23.70;88.30;;;;;;5010754;28;20713;-75
2021/05/30 10:53:37;;;;;;;0.93;0.93;;;23.60;90.30;;;;;;5012609;28;20223;-75
2021/05/30 10:56:30;;;;;;;0.75;0.75;;;23.40;89.50;;;;;;5014949;28;20222;-75
2021/05/30 10:59:20;;;;;;;0.75;0.75;;;23.60;90.70;;;;;;4992092;28;20693;-75
2021/05/30 11:01:48;;;;;;;2.15;0.80;;;23.60;85.70;;;;;;5033078;28;20211;-75
2021/05/30 11:04:31;;;;;;;1.63;0.63;;;23.60;90.90;;;;;;5017974;28;20220;-75
2021/05/30 11:06:59;;;;;;;0.80;0.80;;;23.90;89.60;;;;;;5006227;28;20223;-75
2021/05/30 11:10:06;;;;;;;0.60;0.60;;;24.00;89.20;;;;;;5015709;28;20215;-75
2021/05/30 11:12:34;;;;;;;0.60;0.60;;;24.20;87.00;;;;;;5011069;28;20222;-75
2021/05/30 11:15:21;;;;;;;0.60;0.60;;;24.60;91.80;;;;;;5016116;28;20212;-75
2021/05/30 11:17:50;;;;;;;0.85;0.70;;;24.90;86.30;;;;;;5012893;28;20195;-75
2021/05/30 11:20:19;;;;;;;0.95;0.70;;;24.60;86.40;;;;;;5019404;28;20239;-75
2021/05/30 11:22:48;;;;;;;0.80;0.80;;;24.30;85.70;;;;;;5009272;28;20307;-74
2021/05/30 11:25:16;;;;;;;0.85;0.73;;;24.10;86.30;;;;;;5019970;28;20291;-75
2021/05/30 11:27:50;;;;;;;0.60;0.60;;;24.10;87.40;;;;;;5018237;28;20587;-75
2021/05/30 11:30:39;;;;;;;0.60;0.60;;;24.20;88.60;;;;;;5013215;28;20199;-75
2021/05/30 11:33:08;;;;;;;0.60;0.60;;;24.40;85.10;;;;;;5011690;28;20220;-76
2021/05/30 11:35:35;;;;;;;0.73;0.73;;;24.50;86.60;;;;;;5012376;28;20238;-75
2021/05/30 11:38:02;;;;;;;0.90;0.90;;;24.70;86.10;;;;;;5010177;28;20220;-75
2021/05/30 11:40:29;;;;;;;0.80;0.80;;;25.00;86.10;;;;;;5019357;28;20223;-75
2021/05/30 11:42:55;;;;;;;0.88;0.70;;;24.80;82.90;;;;;;5012839;28;20508;-75
2021/05/30 11:45:33;;;;;;;0.60;0.60;;;24.70;84.70;;;;;;5016325;28;20589;-75
2021/05/30 11:48:08;;;;;;;0.70;0.70;;;24.80;81.90;;;;;;5014563;28;20245;-75
2021/05/30 11:50:36;;;;;;;0.93;0.70;;;25.00;82.80;;;;;;5014312;28;20674;-76
2021/05/30 11:53:07;;;;;;;0.50;0.50;;;25.40;84.10;;;;;;5016568;28;20230;-76
2021/05/30 11:55:36;;;;;;;0.60;0.60;;;25.70;83.10;;;;;;5028700;28;20279;-75
2021/05/30 11:58:07;;;;;;;0.60;0.60;;;25.90;81.10;;;;;;5013335;28;20235;-75
2021/05/30 12:00:34;;;;;;;0.70;0.70;;;25.60;78.60;;;;;;5014482;28;20216;-75
2021/05/30 12:03:10;;;;;;;0.55;0.55;;;25.30;78.10;;;;;;5018080;28;20200;-75
2021/05/30 12:05:37;;;;;;;0.80;0.80;;;25.20;77.50;;;;;;5011132;28;20712;-75
2021/05/30 12:08:17;;;;;;;0.80;0.80;;;25.20;80.40;;;;;;5017669;28;20200;-75
2021/05/30 12:10:55;;;;;;;0.77;0.68;;;25.10;75.00;;;;;;5026820;28;20195;-76
2021/05/30 12:13:32;;;;;;;0.70;0.70;;;25.10;77.80;;;;;;5023378;28;20298;-75
2021/05/30 12:16:12;;;;;;;0.77;0.77;;;25.20;79.40;;;;;;5012401;28;20192;-76
2021/05/30 12:18:50;;;;;;;0.70;0.70;;;25.20;78.80;;;;;;5010071;28;20223;-75
2021/05/30 12:21:17;;;;;;;0.70;0.70;;;25.40;81.80;;;;;;5014356;28;20231;-76
2021/05/30 12:23:44;;;;;;;0.65;0.65;;;25.50;82.30;;;;;;5016313;28;20652;-75
2021/05/30 12:26:12;;;;;;;0.60;0.60;;;25.60;80.10;;;;;;5017882;28;20197;-75
2021/05/30 12:28:40;;;;;;;0.52;0.52;;;25.80;82.40;;;;;;5007733;28;20224;-75
2021/05/30 12:31:08;;;;;;;0.50;0.50;;;26.10;83.60;;;;;;5016626;28;20528;-75
2021/05/30 12:33:53;;;;;;;0.82;0.82;;;26.30;80.50;;;;;;5012469;28;20220;-75
2021/05/30 12:36:37;;;;;;;0.52;0.52;;;26.30;77.60;;;;;;5012634;28;20204;-76
2021/05/30 12:39:10;;;;;;;0.70;0.70;;;26.00;75.00;;;;;;5009631;28;22163;-76
2021/05/30 12:41:39;;;;;;;0.70;0.70;;;25.70;76.20;;;;;;5013409;28;20204;-76
2021/05/30 12:44:09;;;;;;;1.63;0.70;;;25.60;77.30;;;;;;5015022;28;20224;-76
2021/05/30 12:46:36;;;;;;;0.63;0.63;;;25.80;77.20;;;;;;5025268;28;20201;-76
2021/05/30 12:49:12;;;;;;;1.67;0.60;;;26.00;77.80;;;;;;5016552;28;20788;-76
2021/05/30 12:51:38;;;;;;;0.60;0.60;;;26.10;77.00;;;;;;5016704;28;20219;-76
2021/05/30 12:54:20;;;;;;;0.50;0.50;;;26.00;76.30;;;;;;5010837;28;20694;-75
2021/05/30 12:56:47;;;;;;;1.55;0.77;;;26.10;79.30;;;;;;5026445;28;20192;-75
2021/05/30 12:59:15;;;;;;;0.70;0.70;;;26.20;77.00;;;;;;5012929;28;20702;-76